Time;durP1;ratioP1;P1;durP2;ratioP2;P2;SDS_P1;SDS_P2;PMS_P1;PMS_P2;Temp;Humidity;BMP_temperature;BMP_pressure;BME280_temperature;BME280_humidity;BME280_pressure;Samples;Min_cycle;Max_cycle;Signal;HPM_P1;HPM_P2
2022/07/21 00:02:08;;;;;;;0.80;0.77;;;;;;;;;;5051681;28;20390;-71
2022/07/21 00:04:35;;;;;;;1.80;0.60;;;;;;;;;;5051546;28;20060;-72
2022/07/21 00:07:02;;;;;;;1.25;0.60;;;;;;;;;;5051553;28;20073;-72
2022/07/21 00:09:28;;;;;;;2.75;1.02;;;;;;;;;;5051217;28;20838;-72
2022/07/21 00:11:55;;;;;;;1.73;0.90;;;;;;;;;;5051388;28;20049;-71
2022/07/21 00:14:21;;;;;;;2.17;0.70;;;;;;;;;;5051302;28;20111;-71
2022/07/21 00:16:48;;;;;;;0.70;0.60;;;;;;;;;;5051143;28;20493;-72
2022/07/21 00:19:14;;;;;;;2.10;0.83;;;;;;;;;;5051243;28;20339;-72
2022/07/21 00:21:41;;;;;;;2.83;0.80;;;;;;;;;;5051208;28;20079;-72
2022/07/21 00:24:07;;;;;;;0.65;0.65;;;;;;;;;;5050943;28;20044;-71
2022/07/21 00:26:34;;;;;;;1.87;0.77;;;;;;;;;;5051457;28;20102;-73
2022/07/21 00:29:00;;;;;;;0.93;0.80;;;;;;;;;;5051140;28;20489;-73
2022/07/21 00:31:27;;;;;;;4.90;0.80;;;;;;;;;;5029109;28;20057;-72
2022/07/21 00:33:54;;;;;;;1.02;0.93;;;;;;;;;;5046402;28;20045;-72
2022/07/21 00:36:20;;;;;;;2.30;0.70;;;;;;;;;;5050665;28;20499;-73
2022/07/21 00:38:47;;;;;;;1.00;0.60;;;;;;;;;;5050934;28;20059;-72
2022/07/21 00:41:14;;;;;;;2.40;0.70;;;;;;;;;;5053517;28;20126;-72
2022/07/21 00:43:40;;;;;;;2.13;0.60;;;;;;;;;;5054697;28;20332;-72
2022/07/21 00:46:07;;;;;;;3.33;0.83;;;;;;;;;;5053474;28;20331;-73
2022/07/21 00:48:33;;;;;;;1.73;0.70;;;;;;;;;;5055058;28;20502;-73
2022/07/21 00:51:00;;;;;;;1.60;0.60;;;;;;;;;;5054585;28;20057;-73
2022/07/21 00:53:26;;;;;;;3.97;0.97;;;;;;;;;;5054668;28;20456;-73
2022/07/21 00:55:53;;;;;;;0.73;0.73;;;;;;;;;;5054903;28;20098;-73
2022/07/21 00:58:20;;;;;;;0.80;0.80;;;;;;;;;;5042271;28;20502;-72
2022/07/21 01:00:47;;;;;;;2.05;0.90;;;;;;;;;;5054849;28;20049;-72
2022/07/21 01:03:13;;;;;;;2.00;0.90;;;;;;;;;;5054721;28;20570;-73
2022/07/21 01:05:40;;;;;;;1.20;0.88;;;;;;;;;;5054707;28;20053;-73
2022/07/21 01:08:06;;;;;;;1.10;0.93;;;;;;;;;;5054463;28;20068;-73
2022/07/21 01:10:33;;;;;;;0.88;0.55;;;;;;;;;;5054275;28;20480;-73
2022/07/21 01:13:00;;;;;;;0.73;0.70;;;;;;;;;;5054615;28;20095;-72
2022/07/21 01:15:27;;;;;;;0.70;0.52;;;;;;;;;;5054538;28;20313;-72
2022/07/21 01:17:53;;;;;;;1.83;0.68;;;;;;;;;;5054288;28;20106;-73
2022/07/21 01:20:21;;;;;;;1.88;0.77;;;;;;;;;;5054063;28;20052;-73
2022/07/21 01:22:49;;;;;;;2.60;0.60;;;;;;;;;;5054452;28;20053;-73
2022/07/21 01:25:17;;;;;;;1.75;0.60;;;;;;;;;;5054211;28;20119;-73
2022/07/21 01:27:44;;;;;;;2.45;0.70;;;;;;;;;;5054364;28;20049;-73
2022/07/21 01:30:11;;;;;;;3.40;0.90;;;;;;;;;;5053919;28;20045;-73
2022/07/21 01:32:38;;;;;;;1.50;0.70;;;;;;;;;;5054211;28;20339;-73
2022/07/21 01:35:06;;;;;;;0.52;0.50;;;;;;;;;;5054204;28;20107;-73
2022/07/21 01:37:32;;;;;;;;;;;;;;;;;;5054620;28;20045;-73
2022/07/21 01:42:55;;;;;;;0.70;0.70;;;;;;;;;;5068925;28;20061;-73
2022/07/21 01:45:22;;;;;;;;;;;;;;;;;;5054525;28;20118;-73
2022/07/21 01:47:49;;;;;;;0.85;0.57;;;;;;;;;;5052332;28;19924;-73
2022/07/21 01:50:17;;;;;;;0.60;0.60;;;;;;;;;;5053793;28;20095;-73
2022/07/21 01:52:44;;;;;;;1.83;1.02;;;;;;;;;;5053085;28;20049;-73
2022/07/21 01:55:10;;;;;;;1.23;0.70;;;;;;;;;;5053511;28;20103;-73
2022/07/21 01:57:37;;;;;;;1.45;0.65;;;;;;;;;;5041114;28;20054;-73
2022/07/21 02:00:04;;;;;;;1.48;0.80;;;;;;;;;;5053677;28;20048;-73
2022/07/21 02:02:30;;;;;;;1.95;0.80;;;;;;;;;;5053697;28;20816;-73
2022/07/21 02:04:57;;;;;;;1.47;0.87;;;;;;;;;;5053473;28;20060;-74
2022/07/21 02:07:23;;;;;;;0.68;0.63;;;;;;;;;;5053428;28;20048;-74
2022/07/21 02:09:50;;;;;;;0.93;0.77;;;;;;;;;;5053551;28;20102;-74
2022/07/21 02:12:16;;;;;;;1.27;0.80;;;;;;;;;;5053154;28;20102;-74
2022/07/21 02:14:43;;;;;;;0.60;0.60;;;;;;;;;;5053464;28;20057;-74
2022/07/21 02:17:09;;;;;;;0.98;0.95;;;;;;;;;;5048087;28;20080;-74
2022/07/21 02:19:36;;;;;;;1.45;0.70;;;;;;;;;;5052258;28;20045;-74
2022/07/21 02:22:02;;;;;;;0.88;0.75;;;;;;;;;;5053122;28;20167;-73
2022/07/21 02:24:28;;;;;;;1.50;0.60;;;;;;;;;;5053039;28;20053;-73
2022/07/21 02:26:55;;;;;;;1.25;0.80;;;;;;;;;;5053316;28;20118;-73
2022/07/21 02:29:21;;;;;;;0.68;0.50;;;;;;;;;;5052757;28;20060;-73
2022/07/21 02:31:48;;;;;;;1.67;0.95;;;;;;;;;;5053025;28;20102;-73
2022/07/21 02:34:14;;;;;;;0.87;0.60;;;;;;;;;;5052794;28;20091;-72
2022/07/21 02:36:41;;;;;;;1.23;0.60;;;;;;;;;;5053060;28;20118;-72
2022/07/21 02:39:07;;;;;;;0.93;0.68;;;;;;;;;;5053020;28;20044;-72
2022/07/21 02:41:34;;;;;;;1.10;1.00;;;;;;;;;;5052811;28;20044;-72
2022/07/21 02:44:00;;;;;;;0.60;0.55;;;;;;;;;;5052934;28;20049;-72
2022/07/21 02:46:27;;;;;;;2.15;0.70;;;;;;;;;;5052479;28;20559;-73
2022/07/21 02:48:53;;;;;;;1.23;0.65;;;;;;;;;;5052555;28;20131;-72
2022/07/21 02:51:20;;;;;;;1.17;0.70;;;;;;;;;;5052586;28;20041;-72
2022/07/21 02:53:47;;;;;;;2.78;0.93;;;;;;;;;;5052672;28;20041;-72
2022/07/21 02:56:14;;;;;;;2.78;0.90;;;;;;;;;;5050439;28;20052;-72
2022/07/21 02:58:41;;;;;;;;;;;;;;;;;;5052181;28;20099;-72
2022/07/21 03:01:07;;;;;;;1.60;0.90;;;;;;;;;;5052589;28;19990;-72
2022/07/21 03:03:35;;;;;;;0.70;0.70;;;;;;;;;;5052476;28;20097;-72
2022/07/21 03:06:02;;;;;;;1.10;0.73;;;;;;;;;;5052424;28;20056;-72
2022/07/21 03:08:29;;;;;;;1.98;0.70;;;;;;;;;;5052051;28;20053;-72
2022/07/21 03:10:55;;;;;;;1.15;0.70;;;;;;;;;;5052290;28;20090;-72
2022/07/21 03:13:22;;;;;;;2.17;0.70;;;;;;;;;;5052284;28;20049;-72
2022/07/21 03:15:49;;;;;;;1.47;0.80;;;;;;;;;;5052264;28;20041;-72
2022/07/21 03:18:15;;;;;;;1.40;0.70;;;;;;;;;;5051999;28;20049;-72
2022/07/21 03:20:42;;;;;;;1.88;0.60;;;;;;;;;;5051967;28;20045;-72
2022/07/21 03:23:09;;;;;;;0.63;0.50;;;;;;;;;;5052433;28;20052;-73
2022/07/21 03:25:36;;;;;;;3.05;0.63;;;;;;;;;;5051965;28;20061;-72
2022/07/21 03:28:02;;;;;;;0.70;0.50;;;;;;;;;;5051850;28;20060;-72
2022/07/21 03:30:29;;;;;;;0.83;0.63;;;;;;;;;;5051921;28;20053;-72
2022/07/21 03:32:56;;;;;;;1.85;0.60;;;;;;;;;;5051989;28;20277;-73
2022/07/21 03:35:23;;;;;;;2.60;0.70;;;;;;;;;;5051755;28;20052;-73
2022/07/21 03:37:51;;;;;;;2.00;0.70;;;;;;;;;;5051584;28;20037;-73
2022/07/21 03:40:19;;;;;;;0.93;0.60;;;;;;;;;;5051923;28;20049;-73
2022/07/21 03:42:45;;;;;;;1.63;0.70;;;;;;;;;;5051515;28;20060;-73
2022/07/21 03:45:12;;;;;;;0.55;0.55;;;;;;;;;;5051859;28;20106;-73
2022/07/21 03:47:38;;;;;;;1.38;0.90;;;;;;;;;;5051554;28;20053;-72
2022/07/21 03:50:06;;;;;;;0.75;0.50;;;;;;;;;;5051635;28;20053;-72
2022/07/21 03:52:32;;;;;;;;;;;;;;;;;;5052163;28;20074;-73
2022/07/21 03:55:07;;;;;;;1.55;0.60;;;;;;;;;;5051651;28;19950;-72
2022/07/21 03:57:41;;;;;;;1.38;0.43;;;;;;;;;;5037875;28;20041;-72
2022/07/21 04:00:10;;;;;;;2.35;1.10;;;;;;;;;;5024016;28;20045;-72
2022/07/21 04:02:37;;;;;;;0.80;0.65;;;;;;;;;;5051304;28;20501;-72
2022/07/21 04:05:04;;;;;;;1.50;0.80;;;;;;;;;;5051249;28;20497;-73
2022/07/21 04:07:30;;;;;;;1.75;0.77;;;;;;;;;;5051589;28;20316;-72
2022/07/21 04:09:57;;;;;;;0.95;0.47;;;;;;;;;;5051464;28;20138;-72
2022/07/21 04:12:27;;;;;;;1.40;0.70;;;;;;;;;;5051584;28;20069;-73
2022/07/21 04:14:54;;;;;;;1.27;0.50;;;;;;;;;;5052904;28;20493;-72
2022/07/21 04:17:21;;;;;;;;;;;;;;;;;;5056025;28;20041;-72
2022/07/21 04:19:47;;;;;;;1.88;0.80;;;;;;;;;;5055629;28;20045;-72
2022/07/21 04:22:17;;;;;;;1.23;0.52;;;;;;;;;;5055649;28;20091;-72
2022/07/21 04:24:43;;;;;;;2.00;0.70;;;;;;;;;;5055519;28;20052;-72
2022/07/21 04:27:10;;;;;;;0.95;0.50;;;;;;;;;;5055330;28;20102;-72
2022/07/21 04:29:38;;;;;;;0.60;0.60;;;;;;;;;;5055144;28;20558;-73
2022/07/21 04:32:04;;;;;;;1.75;0.63;;;;;;;;;;5055232;28;20037;-72
2022/07/21 04:34:31;;;;;;;2.80;0.70;;;;;;;;;;5055408;28;20041;-72
2022/07/21 04:36:57;;;;;;;0.80;0.40;;;;;;;;;;5055022;28;20106;-72
2022/07/21 04:39:24;;;;;;;0.95;0.60;;;;;;;;;;5055181;28;20107;-72
2022/07/21 04:41:50;;;;;;;1.95;0.85;;;;;;;;;;5054670;28;20107;-72
2022/07/21 04:44:17;;;;;;;1.05;0.60;;;;;;;;;;5055180;28;20045;-72
2022/07/21 04:46:43;;;;;;;1.60;0.77;;;;;;;;;;5054835;28;20485;-72
2022/07/21 04:49:10;;;;;;;2.53;1.00;;;;;;;;;;5055091;28;20056;-72
2022/07/21 04:51:36;;;;;;;3.03;0.70;;;;;;;;;;5054685;28;20095;-72
2022/07/21 04:54:03;;;;;;;1.13;0.50;;;;;;;;;;5054837;28;20040;-72
2022/07/21 04:56:29;;;;;;;3.20;0.90;;;;;;;;;;5050798;28;20038;-72
2022/07/21 04:58:56;;;;;;;1.38;0.55;;;;;;;;;;5044860;28;20060;-72
2022/07/21 05:01:22;;;;;;;1.15;0.60;;;;;;;;;;5054829;28;20060;-72
2022/07/21 05:03:50;;;;;;;0.75;0.70;;;;;;;;;;5054869;28;20436;-72
2022/07/21 05:06:18;;;;;;;0.82;0.63;;;;;;;;;;5054420;28;20060;-72
2022/07/21 05:08:52;;;;;;;3.78;1.15;;;;;;;;;;5054561;28;20048;-72
2022/07/21 05:11:19;;;;;;;1.33;0.73;;;;;;;;;;5054578;28;20049;-72
2022/07/21 05:13:45;;;;;;;2.58;0.73;;;;;;;;;;5054301;28;20082;-72
2022/07/21 05:16:12;;;;;;;1.17;0.77;;;;;;;;;;5054611;28;20048;-72
2022/07/21 05:18:38;;;;;;;1.15;0.68;;;;;;;;;;5054511;28;20045;-72
2022/07/21 05:21:05;;;;;;;0.68;0.52;;;;;;;;;;5054522;28;20135;-72
2022/07/21 05:23:31;;;;;;;1.17;0.60;;;;;;;;;;5054402;28;20052;-72
2022/07/21 05:25:58;;;;;;;0.98;0.50;;;;;;;;;;5052670;28;20484;-72
2022/07/21 05:28:28;;;;;;;2.72;0.65;;;;;;;;;;5054387;28;20061;-72
2022/07/21 05:30:54;;;;;;;0.75;0.60;;;;;;;;;;5043510;28;20103;-72
2022/07/21 05:33:21;;;;;;;3.05;0.98;;;;;;;;;;5034024;28;20053;-72
2022/07/21 05:35:48;;;;;;;1.30;0.50;;;;;;;;;;5033720;28;20049;-72
2022/07/21 05:38:14;;;;;;;1.15;0.45;;;;;;;;;;5037617;28;20404;-72
2022/07/21 05:40:41;;;;;;;3.10;0.98;;;;;;;;;;5054158;28;20049;-72
2022/07/21 05:43:08;;;;;;;1.10;0.63;;;;;;;;;;5053634;28;20057;-71
2022/07/21 05:45:35;;;;;;;1.17;0.60;;;;;;;;;;5050332;28;20107;-72
2022/07/21 05:48:01;;;;;;;1.02;0.50;;;;;;;;;;5042926;28;20048;-72
2022/07/21 05:50:28;;;;;;;1.55;0.65;;;;;;;;;;5053710;28;20386;-73
2022/07/21 05:52:54;;;;;;;1.20;0.65;;;;;;;;;;5053605;28;20546;-75
2022/07/21 05:55:21;;;;;;;1.67;0.70;;;;;;;;;;5053484;28;20107;-74
2022/07/21 05:57:48;;;;;;;4.00;0.77;;;;;;;;;;5044764;28;20098;-74
2022/07/21 06:00:15;;;;;;;2.50;0.60;;;;;;;;;;5053694;28;20282;-75
2022/07/21 06:02:42;;;;;;;2.05;0.75;;;;;;;;;;5053312;28;20094;-74
2022/07/21 06:05:10;;;;;;;1.85;0.70;;;;;;;;;;5043849;28;20382;-68
2022/07/21 06:07:37;;;;;;;1.52;0.60;;;;;;;;;;5048528;28;20052;-70
2022/07/21 06:10:04;;;;;;;0.98;0.50;;;;;;;;;;5053397;28;20107;-69
2022/07/21 06:12:34;;;;;;;2.80;0.60;;;;;;;;;;5053122;28;20053;-71
2022/07/21 06:15:01;;;;;;;1.40;0.60;;;;;;;;;;5053166;28;20045;-71
2022/07/21 06:17:31;;;;;;;1.92;0.60;;;;;;;;;;5053155;28;20049;-67
2022/07/21 06:20:00;;;;;;;1.25;0.50;;;;;;;;;;5053166;28;20400;-70
2022/07/21 06:22:27;;;;;;;1.27;0.38;;;;;;;;;;5052375;28;20098;-71
2022/07/21 06:24:53;;;;;;;1.38;0.65;;;;;;;;;;5049557;28;20053;-75
2022/07/21 06:27:20;;;;;;;0.60;0.50;;;;;;;;;;5049412;28;20110;-76
2022/07/21 06:29:46;;;;;;;1.75;0.70;;;;;;;;;;5052966;28;20057;-74
2022/07/21 06:32:13;;;;;;;3.97;0.80;;;;;;;;;;5052706;28;20095;-75
2022/07/21 06:34:44;;;;;;;2.78;0.60;;;;;;;;;;5053117;28;20048;-72
2022/07/21 06:37:11;;;;;;;1.10;0.60;;;;;;;;;;5033553;28;20049;-70
2022/07/21 06:39:41;;;;;;;2.72;0.60;;;;;;;;;;5032012;28;20512;-70
2022/07/21 06:42:08;;;;;;;2.42;0.50;;;;;;;;;;5031792;28;20107;-71
2022/07/21 06:44:34;;;;;;;2.67;0.80;;;;;;;;;;5031922;28;20095;-73
2022/07/21 06:47:04;;;;;;;1.77;0.50;;;;;;;;;;5040256;28;20053;-76
2022/07/21 06:49:31;;;;;;;1.30;0.60;;;;;;;;;;5038067;28;20053;-75
2022/07/21 06:51:57;;;;;;;1.58;0.65;;;;;;;;;;5052617;28;20094;-74
2022/07/21 06:54:24;;;;;;;1.53;0.50;;;;;;;;;;5051249;28;20041;-73
2022/07/21 06:56:51;;;;;;;2.17;0.60;;;;;;;;;;5050302;28;20443;-74
2022/07/21 06:59:17;;;;;;;3.00;0.50;;;;;;;;;;5052384;28;20052;-74
2022/07/21 07:01:44;;;;;;;2.53;0.68;;;;;;;;;;5052573;28;20098;-73
2022/07/21 07:04:11;;;;;;;0.95;0.40;;;;;;;;;;5052534;28;20052;-73
2022/07/21 07:06:39;;;;;;;3.25;0.70;;;;;;;;;;5052363;28;20102;-73
2022/07/21 07:09:05;;;;;;;3.23;0.53;;;;;;;;;;5052276;28;20056;-73
2022/07/21 07:11:34;;;;;;;1.20;0.80;;;;;;;;;;5052267;28;20076;-73
2022/07/21 07:14:00;;;;;;;2.97;0.60;;;;;;;;;;5052387;28;20047;-73
2022/07/21 07:16:42;;;;;;;1.40;0.43;;;;;;;;;;5052092;28;20052;-74
2022/07/21 07:19:09;;;;;;;3.50;0.80;;;;;;;;;;5052140;28;20045;-73
2022/07/21 07:21:35;;;;;;;2.95;1.10;;;;;;;;;;5052214;28;20053;-73
2022/07/21 07:24:02;;;;;;;1.13;0.82;;;;;;;;;;5052124;28;20045;-73
2022/07/21 07:26:28;;;;;;;2.93;1.00;;;;;;;;;;5051822;28;20497;-73
2022/07/21 07:28:55;;;;;;;3.08;0.77;;;;;;;;;;5051955;28;20351;-73
2022/07/21 07:31:22;;;;;;;3.13;0.82;;;;;;;;;;5052015;28;20055;-73
2022/07/21 07:33:49;;;;;;;4.20;0.70;;;;;;;;;;5051756;28;20048;-74
2022/07/21 07:36:16;;;;;;;2.55;0.82;;;;;;;;;;5051680;28;20368;-73
2022/07/21 07:38:43;;;;;;;3.28;0.68;;;;;;;;;;5051718;28;20558;-73
2022/07/21 07:41:09;;;;;;;1.40;0.50;;;;;;;;;;5051906;28;20106;-74
2022/07/21 07:43:36;;;;;;;1.35;0.80;;;;;;;;;;5051507;28;20061;-74
2022/07/21 07:46:04;;;;;;;2.13;0.57;;;;;;;;;;5049616;28;20107;-73
2022/07/21 07:48:31;;;;;;;2.75;0.70;;;;;;;;;;5040015;28;20293;-73
2022/07/21 07:50:57;;;;;;;1.77;0.70;;;;;;;;;;5051293;28;20068;-74
2022/07/21 07:53:24;;;;;;;2.50;0.60;;;;;;;;;;5051865;28;20102;-74
2022/07/21 07:55:50;;;;;;;2.70;0.73;;;;;;;;;;5050271;28;20045;-74
2022/07/21 07:58:17;;;;;;;2.75;0.77;;;;;;;;;;5037326;28;20048;-73
2022/07/21 08:00:43;;;;;;;1.65;0.68;;;;;;;;;;5051434;28;20048;-73
2022/07/21 08:03:21;;;;;;;2.05;0.70;;;;;;;;;;5051614;28;20132;-73
2022/07/21 08:05:47;;;;;;;;;;;;;;;;;;5052132;28;20417;-74
2022/07/21 08:08:14;;;;;;;1.98;0.50;;;;;;;;;;5051219;28;19928;-73
2022/07/21 08:10:41;;;;;;;2.08;0.60;;;;;;;;;;5051264;28;20546;-74
2022/07/21 08:13:11;;;;;;;1.02;0.60;;;;;;;;;;5051482;28;20052;-74
2022/07/21 08:15:38;;;;;;;4.35;0.90;;;;;;;;;;5051295;28;20103;-74
2022/07/21 08:18:04;;;;;;;;;;;;;;;;;;5051660;28;20517;-73
2022/07/21 08:20:30;;;;;;;;;;;;;;;;;;5050336;28;19924;-74
2022/07/21 08:22:57;;;;;;;;;;;;;;;;;;5051596;28;19924;-74
2022/07/21 08:25:23;;;;;;;2.85;0.60;;;;;;;;;;5049773;28;19921;-74
2022/07/21 08:27:50;;;;;;;1.70;0.68;;;;;;;;;;5051405;28;20115;-74
2022/07/21 08:30:16;;;;;;;1.42;0.60;;;;;;;;;;5051162;28;20052;-74
2022/07/21 08:32:43;;;;;;;;;;;;;;;;;;5051669;28;20048;-74
2022/07/21 08:35:09;;;;;;;3.30;0.93;;;;;;;;;;5051095;28;19970;-74
2022/07/21 08:37:36;;;;;;;1.25;0.93;;;;;;;;;;5051429;28;20045;-74
2022/07/21 08:40:06;;;;;;;1.38;0.80;;;;;;;;;;5051021;28;20068;-75
2022/07/21 08:42:33;;;;;;;3.55;1.17;;;;;;;;;;5050795;28;20064;-75
2022/07/21 08:45:00;;;;;;;2.38;0.90;;;;;;;;;;5051280;28;20044;-75
2022/07/21 08:47:27;;;;;;;1.52;0.60;;;;;;;;;;5051588;28;20098;-75
2022/07/21 08:49:54;;;;;;;2.60;1.00;;;;;;;;;;5050900;28;20558;-75
2022/07/21 08:52:20;;;;;;;1.92;0.75;;;;;;;;;;5051106;28;20103;-75
2022/07/21 08:54:47;;;;;;;2.67;1.10;;;;;;;;;;5051105;28;20091;-75
2022/07/21 08:57:13;;;;;;;2.80;0.93;;;;;;;;;;5040984;28;20401;-75
2022/07/21 08:59:40;;;;;;;5.07;1.25;;;;;;;;;;5047173;28;20452;-75
2022/07/21 09:02:24;;;;;;;3.25;1.17;;;;;;;;;;5054498;28;20049;-74
2022/07/21 09:04:52;;;;;;;2.97;1.30;;;;;;;;;;5054758;28;20049;-74
2022/07/21 09:07:19;;;;;;;3.53;1.20;;;;;;;;;;5054804;28;20130;-74
2022/07/21 09:09:54;;;;;;;2.58;1.30;;;;;;;;;;5054683;28;20636;-75
2022/07/21 09:12:20;;;;;;;4.50;1.30;;;;;;;;;;5054670;28;20097;-74
2022/07/21 09:14:47;;;;;;;2.70;1.48;;;;;;;;;;5054575;28;20053;-74
2022/07/21 09:17:16;;;;;;;4.15;1.90;;;;;;;;;;5054324;28;20106;-74
2022/07/21 09:19:45;;;;;;;2.47;1.33;;;;;;;;;;5054510;28;20102;-74
2022/07/21 09:22:13;;;;;;;1.77;1.40;;;;;;;;;;5054491;28;20126;-74
2022/07/21 09:24:40;;;;;;;2.85;1.48;;;;;;;;;;5054476;28;20098;-74
2022/07/21 09:27:08;;;;;;;3.35;1.92;;;;;;;;;;5054108;28;20057;-75
2022/07/21 09:29:34;;;;;;;3.20;1.98;;;;;;;;;;5054185;28;20099;-75
2022/07/21 09:32:16;;;;;;;3.03;1.58;;;;;;;;;;5054214;28;20049;-75
2022/07/21 09:34:43;;;;;;;4.72;1.65;;;;;;;;;;5054014;28;20091;-75
2022/07/21 09:37:10;;;;;;;2.53;1.60;;;;;;;;;;5054217;28;20106;-75
2022/07/21 09:39:55;;;;;;;2.25;1.27;;;;;;;;;;5053844;28;20045;-75
2022/07/21 09:42:23;;;;;;;1.93;1.20;;;;;;;;;;5053843;28;20063;-74
2022/07/21 09:44:52;;;;;;;3.08;1.42;;;;;;;;;;5053743;28;20106;-75
2022/07/21 09:47:19;;;;;;;2.47;1.10;;;;;;;;;;5053935;28;20110;-75
2022/07/21 09:49:46;;;;;;;2.35;1.35;;;;;;;;;;5053862;28;20049;-75
2022/07/21 09:52:37;;;;;;;1.95;1.23;;;;;;;;;;5053648;28;20132;-75
2022/07/21 09:55:05;;;;;;;1.90;1.13;;;;;;;;;;5053576;28;20556;-75
2022/07/21 09:57:32;;;;;;;1.77;1.25;;;;;;;;;;5041070;28;20123;-75
2022/07/21 10:00:07;;;;;;;2.45;1.25;;;;;;;;;;5053487;28;20041;-75
2022/07/21 10:02:44;;;;;;;2.85;1.30;;;;;;;;;;5053844;28;20126;-75
2022/07/21 10:05:15;;;;;;;2.45;1.45;;;;;;;;;;5053577;28;20106;-75
2022/07/21 10:07:43;;;;;;;2.25;1.17;;;;;;;;;;5053617;28;20382;-75
2022/07/21 10:10:10;;;;;;;2.97;1.45;;;;;;;;;;5053229;28;20090;-75
2022/07/21 10:12:37;;;;;;;2.22;1.63;;;;;;;;;;5052469;28;20052;-75
2022/07/21 10:15:04;;;;;;;1.88;1.30;;;;;;;;;;5053090;28;20044;-75
2022/07/21 10:17:30;;;;;;;2.60;1.20;;;;;;;;;;5053248;28;20052;-75
2022/07/21 10:20:16;;;;;;;2.45;1.48;;;;;;;;;;5053219;28;20041;-75
2022/07/21 10:22:54;;;;;;;3.90;1.58;;;;;;;;;;5053097;28;20471;-75
2022/07/21 10:25:21;;;;;;;3.13;1.85;;;;;;;;;;5053126;28;20044;-75
2022/07/21 10:28:06;;;;;;;3.30;2.00;;;;;;;;;;5053298;28;20045;-75
2022/07/21 10:30:47;;;;;;;3.80;2.10;;;;;;;;;;5053188;28;20052;-75
2022/07/21 10:33:14;;;;;;;3.08;2.55;;;;;;;;;;5052834;28;20488;-75
2022/07/21 10:35:41;;;;;;;2.08;1.70;;;;;;;;;;5053056;28;20110;-75
2022/07/21 10:38:29;;;;;;;3.03;1.90;;;;;;;;;;5053113;28;20053;-75
2022/07/21 10:40:55;;;;;;;2.53;1.65;;;;;;;;;;5052887;28;20569;-74
2022/07/21 10:43:27;;;;;;;2.88;1.55;;;;;;;;;;5052589;28;20564;-74
2022/07/21 10:45:54;;;;;;;;;;;;;;;;;;5053279;28;20053;-75
2022/07/21 10:48:42;;;;;;;2.28;1.50;;;;;;;;;;5053130;28;19931;-75
2022/07/21 10:51:14;;;;;;;4.03;1.77;;;;;;;;;;5052445;28;20057;-75
2022/07/21 10:53:41;;;;;;;3.08;1.90;;;;;;;;;;5052729;28;20094;-75
2022/07/21 10:56:08;;;;;;;2.35;2.00;;;;;;;;;;5051310;28;20094;-75
2022/07/21 10:58:38;;;;;;;1.98;1.50;;;;;;;;;;5040162;28;20105;-75
2022/07/21 11:01:19;;;;;;;1.95;1.50;;;;;;;;;;5052333;28;20461;-75
2022/07/21 11:04:05;;;;;;;2.10;1.85;;;;;;;;;;5052320;28;20080;-75
2022/07/21 11:06:32;;;;;;;2.95;2.17;;;;;;;;;;5052239;28;20053;-75
2022/07/21 11:08:59;;;;;;;2.78;1.60;;;;;;;;;;5052464;28;20048;-75
2022/07/21 11:11:26;;;;;;;3.17;1.90;;;;;;;;;;5052416;28;20122;-75
2022/07/21 11:14:13;;;;;;;2.70;1.85;;;;;;;;;;5052048;28;20134;-75
2022/07/21 11:17:03;;;;;;;1.88;1.75;;;;;;;;;;5052229;28;20053;-76
2022/07/21 11:19:29;;;;;;;2.70;1.83;;;;;;;;;;5052101;28;20258;-75
2022/07/21 11:21:57;;;;;;;1.98;1.75;;;;;;;;;;5050970;28;20040;-75
2022/07/21 11:24:24;;;;;;;3.10;2.17;;;;;;;;;;5051896;28;20061;-75
2022/07/21 11:26:58;;;;;;;4.07;1.90;;;;;;;;;;5052075;28;20053;-75
2022/07/21 11:29:24;;;;;;;2.45;2.17;;;;;;;;;;5051811;28;20519;-75
2022/07/21 11:31:51;;;;;;;3.60;2.22;;;;;;;;;;5051852;28;20053;-74
2022/07/21 11:34:18;;;;;;;3.72;2.45;;;;;;;;;;5052021;28;20045;-75
2022/07/21 11:36:45;;;;;;;3.60;2.20;;;;;;;;;;5051779;28;20045;-75
2022/07/21 11:39:11;;;;;;;;;;;;;;;;;;5052040;28;20053;-74
2022/07/21 11:41:39;;;;;;;3.00;2.20;;;;;;;;;;5051804;28;19925;-74
2022/07/21 11:44:06;;;;;;;2.90;2.40;;;;;;;;;;5051547;28;20493;-74
2022/07/21 11:46:55;;;;;;;2.80;2.40;;;;;;;;;;5051664;28;20103;-75
2022/07/21 11:49:22;;;;;;;5.55;2.30;;;;;;;;;;5051504;28;20045;-75
2022/07/21 11:51:50;;;;;;;3.80;2.00;;;;;;;;;;5051629;28;20049;-75
2022/07/21 11:54:44;;;;;;;2.88;1.95;;;;;;;;;;5051856;28;20444;-75
2022/07/21 11:57:10;;;;;;;2.65;2.13;;;;;;;;;;5041330;28;20576;-75
2022/07/21 11:59:40;;;;;;;3.10;1.90;;;;;;;;;;5047634;28;20099;-74
2022/07/21 12:02:11;;;;;;;2.85;2.22;;;;;;;;;;5051642;28;20041;-74
2022/07/21 12:04:41;;;;;;;3.03;2.13;;;;;;;;;;5051588;28;20140;-74
2022/07/21 12:07:13;;;;;;;4.03;2.38;;;;;;;;;;5051638;28;20473;-74
2022/07/21 12:09:41;;;;;;;3.25;2.30;;;;;;;;;;5051331;28;20048;-74
2022/07/21 12:12:12;;;;;;;5.10;2.70;;;;;;;;;;5051469;28;20049;-74
2022/07/21 12:14:39;;;;;;;7.20;2.60;;;;;;;;;;5051285;28;20559;-74
2022/07/21 12:17:34;;;;;;;2.88;2.10;;;;;;;;;;5051415;28;20032;-73
2022/07/21 12:20:00;;;;;;;4.47;2.25;;;;;;;;;;5051144;28;20084;-74
2022/07/21 12:22:34;;;;;;;3.35;2.40;;;;;;;;;;5051309;28;20049;-74
2022/07/21 12:25:01;;;;;;;3.15;2.22;;;;;;;;;;5051042;28;20085;-74
2022/07/21 12:27:27;;;;;;;4.40;2.20;;;;;;;;;;5051174;28;20563;-74
2022/07/21 12:29:54;;;;;;;3.63;2.40;;;;;;;;;;5051157;28;20140;-73
2022/07/21 12:32:40;;;;;;;3.97;2.40;;;;;;;;;;5051166;28;20080;-73
2022/07/21 12:35:16;;;;;;;2.65;2.25;;;;;;;;;;5051476;28;20072;-73
2022/07/21 12:37:55;;;;;;;2.92;2.35;;;;;;;;;;5055052;28;20572;-73
2022/07/21 12:40:26;;;;;;;2.65;2.30;;;;;;;;;;5055218;28;20102;-73
2022/07/21 12:43:03;;;;;;;3.45;2.38;;;;;;;;;;5054848;28;20057;-73
2022/07/21 12:45:29;;;;;;;5.82;2.53;;;;;;;;;;5055187;28;20089;-73
2022/07/21 12:48:08;;;;;;;3.38;2.13;;;;;;;;;;5055151;28;20132;-73
2022/07/21 12:50:38;;;;;;;3.90;2.65;;;;;;;;;;5055437;28;20099;-73
2022/07/21 12:53:05;;;;;;;2.38;2.17;;;;;;;;;;5053354;28;20068;-73
2022/07/21 12:55:32;;;;;;;3.15;2.10;;;;;;;;;;5054792;28;20049;-73
2022/07/21 12:57:58;;;;;;;2.70;2.22;;;;;;;;;;5040570;28;20049;-73
2022/07/21 13:00:28;;;;;;;3.15;2.50;;;;;;;;;;5054919;28;20125;-73
2022/07/21 13:02:55;;;;;;;3.20;2.17;;;;;;;;;;5054863;28;20453;-73
2022/07/21 13:05:22;;;;;;;3.60;2.38;;;;;;;;;;5054735;28;20103;-73
2022/07/21 13:07:49;;;;;;;3.10;2.50;;;;;;;;;;5054514;28;20500;-73
2022/07/21 13:10:15;;;;;;;4.03;2.85;;;;;;;;;;5054383;28;20508;-74
2022/07/21 13:12:42;;;;;;;3.28;2.47;;;;;;;;;;5054333;28;20128;-73
2022/07/21 13:15:09;;;;;;;3.67;2.58;;;;;;;;;;5054640;28;20455;-73
2022/07/21 13:17:36;;;;;;;3.20;2.30;;;;;;;;;;5054664;28;20041;-73
2022/07/21 13:20:03;;;;;;;3.80;2.40;;;;;;;;;;5054275;28;20575;-73
2022/07/21 13:22:33;;;;;;;2.35;2.15;;;;;;;;;;5053298;28;20412;-74
2022/07/21 13:24:59;;;;;;;;;;;;;;;;;;5054861;28;20096;-74
2022/07/21 13:27:26;;;;;;;3.35;2.67;;;;;;;;;;5054043;28;20066;-73
2022/07/21 13:29:52;;;;;;;3.92;2.63;;;;;;;;;;5054417;28;20079;-73
2022/07/21 13:32:19;;;;;;;3.70;2.53;;;;;;;;;;5053922;28;20080;-73
2022/07/21 13:34:45;;;;;;;3.15;2.25;;;;;;;;;;5054100;28;20037;-73
2022/07/21 13:37:31;;;;;;;;;;;;;;;;;;5054294;28;20132;-74
2022/07/21 13:39:58;;;;;;;;;;;;;;;;;;5054535;28;19925;-73
2022/07/21 13:42:44;;;;;;;5.85;3.00;;;;;;;;;;5053596;28;19947;-73
2022/07/21 13:45:31;;;;;;;4.32;2.50;;;;;;;;;;5054083;28;20059;-73
2022/07/21 13:47:57;;;;;;;3.10;2.70;;;;;;;;;;5052819;28;20075;-73
2022/07/21 13:50:24;;;;;;;2.72;2.33;;;;;;;;;;5053735;28;20088;-74
2022/07/21 13:52:50;;;;;;;2.97;2.50;;;;;;;;;;5053751;28;20131;-73
2022/07/21 13:55:16;;;;;;;3.85;2.50;;;;;;;;;;5054026;28;20076;-73
2022/07/21 13:57:44;;;;;;;3.70;2.67;;;;;;;;;;5038420;28;20099;-73
2022/07/21 14:00:11;;;;;;;2.90;2.60;;;;;;;;;;5053856;28;20079;-73
2022/07/21 14:02:37;;;;;;;;;;;;;;;;;;5054014;28;20049;-73
2022/07/21 14:05:05;;;;;;;3.28;2.50;;;;;;;;;;5053668;28;19978;-73
2022/07/21 14:07:31;;;;;;;3.28;2.45;;;;;;;;;;5053734;28;20359;-73
2022/07/21 14:09:57;;;;;;;3.90;2.40;;;;;;;;;;5053283;28;20045;-73
2022/07/21 14:12:24;;;;;;;4.10;2.65;;;;;;;;;;5053404;28;20100;-73
2022/07/21 14:14:50;;;;;;;3.08;2.30;;;;;;;;;;5053313;28;20092;-73
2022/07/21 14:17:17;;;;;;;3.63;2.50;;;;;;;;;;5053537;28;20045;-73
2022/07/21 14:19:46;;;;;;;2.85;2.35;;;;;;;;;;5053245;28;20077;-73
2022/07/21 14:22:13;;;;;;;4.57;2.45;;;;;;;;;;5053413;28;20080;-73
2022/07/21 14:27:26;;;;;;;4.40;2.57;;;;;;;;;;5053081;28;20060;-73
2022/07/21 14:29:54;;;;;;;3.28;2.58;;;;;;;;;;5053257;28;20132;-73
2022/07/21 14:32:22;;;;;;;3.85;2.70;;;;;;;;;;5053221;28;20095;-73
2022/07/21 14:34:49;;;;;;;3.80;2.60;;;;;;;;;;5051769;28;20088;-73
2022/07/21 14:37:15;;;;;;;;;;;;;;;;;;5053639;28;20448;-73
2022/07/21 14:39:42;;;;;;;5.80;2.65;;;;;;;;;;5025038;28;20011;-73
2022/07/21 14:42:09;;;;;;;4.43;2.72;;;;;;;;;;5052891;28;20052;-72
2022/07/21 14:44:35;;;;;;;;;;;;;;;;;;5053328;28;20099;-72
2022/07/21 14:47:02;;;;;;;4.47;2.60;;;;;;;;;;5052709;28;19979;-73
2022/07/21 14:49:28;;;;;;;6.30;2.90;;;;;;;;;;5052904;28;20055;-73
2022/07/21 14:51:55;;;;;;;4.13;2.72;;;;;;;;;;5052822;28;20459;-73
2022/07/21 14:54:21;;;;;;;5.75;2.78;;;;;;;;;;5052408;28;20099;-73
2022/07/21 14:56:47;;;;;;;4.03;2.47;;;;;;;;;;5045815;28;20081;-73
2022/07/21 14:59:34;;;;;;;3.58;2.58;;;;;;;;;;5047866;28;20049;-73
2022/07/21 15:02:01;;;;;;;3.55;2.88;;;;;;;;;;5052639;28;20060;-73